sensor_id;sensor_type;location;lat;lon;timestamp;temperature;humidity
64997;SHT31;51545;51.568;6.998;2024-01-15T00:01:04;0.98;99.99
64997;SHT31;51545;51.568;6.998;2024-01-15T00:03:30;0.94;99.99
64997;SHT31;51545;51.568;6.998;2024-01-15T00:05:56;1.01;99.99
64997;SHT31;51545;51.568;6.998;2024-01-15T00:08:22;1.04;99.99
64997;SHT31;51545;51.568;6.998;2024-01-15T00:10:48;1.08;99.99
64997;SHT31;51545;51.568;6.998;2024-01-15T00:13:14;1.02;99.99
64997;SHT31;51545;51.568;6.998;2024-01-15T00:15:40;1.07;99.99
64997;SHT31;51545;51.568;6.998;2024-01-15T00:18:06;1.04;99.99
64997;SHT31;51545;51.568;6.998;2024-01-15T00:20:32;1.05;99.99
64997;SHT31;51545;51.568;6.998;2024-01-15T00:22:58;0.98;99.99
64997;SHT31;51545;51.568;6.998;2024-01-15T00:25:24;1.05;99.99
64997;SHT31;51545;51.568;6.998;2024-01-15T00:27:49;1.02;99.99
64997;SHT31;51545;51.568;6.998;2024-01-15T00:30:15;1.05;99.99
64997;SHT31;51545;51.568;6.998;2024-01-15T00:32:41;1.02;99.99
64997;SHT31;51545;51.568;6.998;2024-01-15T00:35:07;1.07;99.99
64997;SHT31;51545;51.568;6.998;2024-01-15T00:37:33;1.09;99.99
64997;SHT31;51545;51.568;6.998;2024-01-15T00:39:59;1.09;99.99
64997;SHT31;51545;51.568;6.998;2024-01-15T00:42:25;1.07;99.99
64997;SHT31;51545;51.568;6.998;2024-01-15T00:44:51;1.08;99.99
64997;SHT31;51545;51.568;6.998;2024-01-15T00:47:19;1.02;99.99
64997;SHT31;51545;51.568;6.998;2024-01-15T00:49:45;1.05;99.99
64997;SHT31;51545;51.568;6.998;2024-01-15T00:52:11;1.02;99.99
64997;SHT31;51545;51.568;6.998;2024-01-15T00:54:37;1.05;99.99
64997;SHT31;51545;51.568;6.998;2024-01-15T00:57:04;1.09;99.99
64997;SHT31;51545;51.568;6.998;2024-01-15T00:59:30;1.04;99.99
64997;SHT31;51545;51.568;6.998;2024-01-15T01:01:56;1.07;99.99
64997;SHT31;51545;51.568;6.998;2024-01-15T01:04:22;1.09;99.99
64997;SHT31;51545;51.568;6.998;2024-01-15T01:06:48;1.07;99.99
64997;SHT31;51545;51.568;6.998;2024-01-15T01:09:14;1.04;99.99
64997;SHT31;51545;51.568;6.998;2024-01-15T01:11:40;1.09;99.99
64997;SHT31;51545;51.568;6.998;2024-01-15T01:14:06;1.01;99.99
64997;SHT31;51545;51.568;6.998;2024-01-15T01:16:32;1.01;99.99
64997;SHT31;51545;51.568;6.998;2024-01-15T01:19:07;1.05;99.99
64997;SHT31;51545;51.568;6.998;2024-01-15T01:21:33;1.04;99.99
64997;SHT31;51545;51.568;6.998;2024-01-15T01:23:59;1.09;99.99
64997;SHT31;51545;51.568;6.998;2024-01-15T01:26:25;1.07;99.99
64997;SHT31;51545;51.568;6.998;2024-01-15T01:28:51;1.00;99.99
64997;SHT31;51545;51.568;6.998;2024-01-15T01:31:17;1.02;99.99
64997;SHT31;51545;51.568;6.998;2024-01-15T01:33:43;1.04;99.99
64997;SHT31;51545;51.568;6.998;2024-01-15T01:36:09;1.12;99.99
64997;SHT31;51545;51.568;6.998;2024-01-15T01:38:36;1.09;99.99
64997;SHT31;51545;51.568;6.998;2024-01-15T01:41:02;1.07;99.99
64997;SHT31;51545;51.568;6.998;2024-01-15T01:43:28;1.12;99.99
64997;SHT31;51545;51.568;6.998;2024-01-15T01:45:57;1.12;99.99
64997;SHT31;51545;51.568;6.998;2024-01-15T01:48:26;1.09;99.99
64997;SHT31;51545;51.568;6.998;2024-01-15T01:50:54;1.08;99.99
64997;SHT31;51545;51.568;6.998;2024-01-15T01:53:23;1.11;99.99
64997;SHT31;51545;51.568;6.998;2024-01-15T01:55:51;1.07;99.99
64997;SHT31;51545;51.568;6.998;2024-01-15T01:58:18;1.07;99.99
64997;SHT31;51545;51.568;6.998;2024-01-15T02:00:45;1.15;99.99
64997;SHT31;51545;51.568;6.998;2024-01-15T02:03:12;1.12;99.99
64997;SHT31;51545;51.568;6.998;2024-01-15T02:05:39;1.18;99.99
64997;SHT31;51545;51.568;6.998;2024-01-15T02:08:05;1.09;99.99
64997;SHT31;51545;51.568;6.998;2024-01-15T02:10:31;1.02;99.99
64997;SHT31;51545;51.568;6.998;2024-01-15T02:12:57;1.08;99.99
64997;SHT31;51545;51.568;6.998;2024-01-15T02:15:23;1.08;99.99
64997;SHT31;51545;51.568;6.998;2024-01-15T02:17:56;1.12;99.99
64997;SHT31;51545;51.568;6.998;2024-01-15T02:20:23;1.11;99.99
64997;SHT31;51545;51.568;6.998;2024-01-15T02:22:50;1.12;99.99
64997;SHT31;51545;51.568;6.998;2024-01-15T02:25:15;1.07;99.93
64997;SHT31;51545;51.568;6.998;2024-01-15T02:27:42;1.05;99.91
64997;SHT31;51545;51.568;6.998;2024-01-15T02:30:09;1.04;99.85
64997;SHT31;51545;51.568;6.998;2024-01-15T02:32:40;1.07;99.74
64997;SHT31;51545;51.568;6.998;2024-01-15T02:35:06;1.08;99.75
64997;SHT31;51545;51.568;6.998;2024-01-15T02:37:32;1.05;99.72
64997;SHT31;51545;51.568;6.998;2024-01-15T02:39:58;1.12;99.71
64997;SHT31;51545;51.568;6.998;2024-01-15T02:42:26;1.12;99.42
64997;SHT31;51545;51.568;6.998;2024-01-15T02:44:52;1.07;99.53
64997;SHT31;51545;51.568;6.998;2024-01-15T02:47:17;1.05;99.63
64997;SHT31;51545;51.568;6.998;2024-01-15T02:49:43;1.05;99.71
64997;SHT31;51545;51.568;6.998;2024-01-15T02:52:09;1.09;99.53
64997;SHT31;51545;51.568;6.998;2024-01-15T02:54:35;1.08;99.58
64997;SHT31;51545;51.568;6.998;2024-01-15T02:57:01;1.11;99.60
64997;SHT31;51545;51.568;6.998;2024-01-15T02:59:27;1.08;99.64
64997;SHT31;51545;51.568;6.998;2024-01-15T03:01:53;1.08;99.58
64997;SHT31;51545;51.568;6.998;2024-01-15T03:04:19;1.11;99.62
64997;SHT31;51545;51.568;6.998;2024-01-15T03:06:45;1.09;99.59
64997;SHT31;51545;51.568;6.998;2024-01-15T03:09:11;1.05;99.66
64997;SHT31;51545;51.568;6.998;2024-01-15T03:11:39;1.17;99.60
64997;SHT31;51545;51.568;6.998;2024-01-15T03:14:06;1.12;99.47
64997;SHT31;51545;51.568;6.998;2024-01-15T03:16:32;1.18;99.53
64997;SHT31;51545;51.568;6.998;2024-01-15T03:18:58;1.11;99.58
64997;SHT31;51545;51.568;6.998;2024-01-15T03:21:24;1.21;99.18
64997;SHT31;51545;51.568;6.998;2024-01-15T03:23:50;1.17;99.24
64997;SHT31;51545;51.568;6.998;2024-01-15T03:26:15;1.09;99.47
64997;SHT31;51545;51.568;6.998;2024-01-15T03:28:41;1.14;99.40
64997;SHT31;51545;51.568;6.998;2024-01-15T03:31:07;1.17;99.36
64997;SHT31;51545;51.568;6.998;2024-01-15T03:33:33;1.17;99.36
64997;SHT31;51545;51.568;6.998;2024-01-15T03:35:59;1.22;99.37
64997;SHT31;51545;51.568;6.998;2024-01-15T03:38:28;1.19;99.32
64997;SHT31;51545;51.568;6.998;2024-01-15T03:40:54;1.21;99.25
64997;SHT31;51545;51.568;6.998;2024-01-15T03:43:20;1.18;99.28
64997;SHT31;51545;51.568;6.998;2024-01-15T03:45:46;1.25;99.26
64997;SHT31;51545;51.568;6.998;2024-01-15T03:48:12;1.21;99.16
64997;SHT31;51545;51.568;6.998;2024-01-15T03:50:38;1.18;99.11
64997;SHT31;51545;51.568;6.998;2024-01-15T03:53:04;1.18;99.14
64997;SHT31;51545;51.568;6.998;2024-01-15T03:55:30;1.25;99.01
64997;SHT31;51545;51.568;6.998;2024-01-15T03:57:55;1.17;99.01
64997;SHT31;51545;51.568;6.998;2024-01-15T04:00:22;1.21;99.06
64997;SHT31;51545;51.568;6.998;2024-01-15T04:02:48;1.17;99.05
64997;SHT31;51545;51.568;6.998;2024-01-15T04:05:13;1.15;99.05
64997;SHT31;51545;51.568;6.998;2024-01-15T04:07:39;1.24;98.99
64997;SHT31;51545;51.568;6.998;2024-01-15T04:10:05;1.24;98.74
64997;SHT31;51545;51.568;6.998;2024-01-15T04:12:31;1.19;98.93
64997;SHT31;51545;51.568;6.998;2024-01-15T04:14:58;1.24;98.63
64997;SHT31;51545;51.568;6.998;2024-01-15T04:17:23;1.24;98.79
64997;SHT31;51545;51.568;6.998;2024-01-15T04:19:50;1.21;98.79
64997;SHT31;51545;51.568;6.998;2024-01-15T04:22:16;1.21;98.85
64997;SHT31;51545;51.568;6.998;2024-01-15T04:24:42;1.22;98.83
64997;SHT31;51545;51.568;6.998;2024-01-15T04:27:07;1.26;98.82
64997;SHT31;51545;51.568;6.998;2024-01-15T04:29:33;1.25;98.81
64997;SHT31;51545;51.568;6.998;2024-01-15T04:31:59;1.22;98.69
64997;SHT31;51545;51.568;6.998;2024-01-15T04:34:25;1.22;98.77
64997;SHT31;51545;51.568;6.998;2024-01-15T04:36:52;1.28;98.66
64997;SHT31;51545;51.568;6.998;2024-01-15T04:39:18;1.34;98.61
64997;SHT31;51545;51.568;6.998;2024-01-15T04:41:44;1.34;98.62
64997;SHT31;51545;51.568;6.998;2024-01-15T04:44:09;1.32;98.65
64997;SHT31;51545;51.568;6.998;2024-01-15T04:46:36;1.34;98.59
64997;SHT31;51545;51.568;6.998;2024-01-15T04:49:02;1.31;98.68
64997;SHT31;51545;51.568;6.998;2024-01-15T04:51:28;1.39;98.67
64997;SHT31;51545;51.568;6.998;2024-01-15T04:53:54;1.35;98.52
64997;SHT31;51545;51.568;6.998;2024-01-15T04:56:19;1.28;98.60
64997;SHT31;51545;51.568;6.998;2024-01-15T04:58:46;1.22;98.78
64997;SHT31;51545;51.568;6.998;2024-01-15T05:01:12;1.25;98.90
64997;SHT31;51545;51.568;6.998;2024-01-15T05:03:38;1.22;98.82
64997;SHT31;51545;51.568;6.998;2024-01-15T05:06:04;1.24;98.70
64997;SHT31;51545;51.568;6.998;2024-01-15T05:08:31;1.21;98.83
64997;SHT31;51545;51.568;6.998;2024-01-15T05:10:57;1.29;98.72
64997;SHT31;51545;51.568;6.998;2024-01-15T05:13:23;1.25;98.65
64997;SHT31;51545;51.568;6.998;2024-01-15T05:15:49;1.22;98.72
64997;SHT31;51545;51.568;6.998;2024-01-15T05:18:15;1.17;98.77
64997;SHT31;51545;51.568;6.998;2024-01-15T05:20:41;1.35;98.48
64997;SHT31;51545;51.568;6.998;2024-01-15T05:23:08;1.28;98.48
64997;SHT31;51545;51.568;6.998;2024-01-15T05:25:33;1.32;98.41
64997;SHT31;51545;51.568;6.998;2024-01-15T05:27:59;1.32;98.26
64997;SHT31;51545;51.568;6.998;2024-01-15T05:30:27;1.34;98.08
64997;SHT31;51545;51.568;6.998;2024-01-15T05:32:53;1.34;98.24
64997;SHT31;51545;51.568;6.998;2024-01-15T05:35:19;1.34;98.18
64997;SHT31;51545;51.568;6.998;2024-01-15T05:37:45;1.38;98.14
64997;SHT31;51545;51.568;6.998;2024-01-15T05:40:12;1.31;98.14
64997;SHT31;51545;51.568;6.998;2024-01-15T05:45:18;1.35;98.04
64997;SHT31;51545;51.568;6.998;2024-01-15T05:47:44;1.38;98.05
64997;SHT31;51545;51.568;6.998;2024-01-15T05:50:10;1.38;98.08
64997;SHT31;51545;51.568;6.998;2024-01-15T05:52:36;1.36;98.00
64997;SHT31;51545;51.568;6.998;2024-01-15T05:55:02;1.36;98.05
64997;SHT31;51545;51.568;6.998;2024-01-15T05:57:28;1.34;98.09
64997;SHT31;51545;51.568;6.998;2024-01-15T05:59:54;1.36;98.14
64997;SHT31;51545;51.568;6.998;2024-01-15T06:02:20;1.34;98.25
64997;SHT31;51545;51.568;6.998;2024-01-15T06:04:46;1.34;98.11
64997;SHT31;51545;51.568;6.998;2024-01-15T06:07:12;1.34;98.13
64997;SHT31;51545;51.568;6.998;2024-01-15T06:09:38;1.29;98.24
64997;SHT31;51545;51.568;6.998;2024-01-15T06:12:05;1.40;98.12
64997;SHT31;51545;51.568;6.998;2024-01-15T06:14:32;1.39;98.08
64997;SHT31;51545;51.568;6.998;2024-01-15T06:16:58;1.42;98.10
64997;SHT31;51545;51.568;6.998;2024-01-15T06:19:24;1.50;98.00
64997;SHT31;51545;51.568;6.998;2024-01-15T06:21:50;1.39;98.08
64997;SHT31;51545;51.568;6.998;2024-01-15T06:24:16;1.39;98.23
64997;SHT31;51545;51.568;6.998;2024-01-15T06:26:48;1.35;98.37
64997;SHT31;51545;51.568;6.998;2024-01-15T06:29:14;1.35;98.27
64997;SHT31;51545;51.568;6.998;2024-01-15T06:31:40;1.34;98.39
64997;SHT31;51545;51.568;6.998;2024-01-15T06:34:06;1.35;98.43
64997;SHT31;51545;51.568;6.998;2024-01-15T06:36:32;1.36;98.41
64997;SHT31;51545;51.568;6.998;2024-01-15T06:38:58;1.31;98.61
64997;SHT31;51545;51.568;6.998;2024-01-15T06:41:24;1.35;98.53
64997;SHT31;51545;51.568;6.998;2024-01-15T06:43:51;1.39;98.42
64997;SHT31;51545;51.568;6.998;2024-01-15T06:46:22;1.38;98.49
64997;SHT31;51545;51.568;6.998;2024-01-15T06:48:49;1.40;98.57
64997;SHT31;51545;51.568;6.998;2024-01-15T06:51:15;1.40;98.43
64997;SHT31;51545;51.568;6.998;2024-01-15T06:53:41;1.40;98.48
64997;SHT31;51545;51.568;6.998;2024-01-15T06:56:07;1.43;98.34
64997;SHT31;51545;51.568;6.998;2024-01-15T06:58:34;1.40;98.32
64997;SHT31;51545;51.568;6.998;2024-01-15T07:00:59;1.39;98.39
64997;SHT31;51545;51.568;6.998;2024-01-15T07:03:25;1.49;98.18
64997;SHT31;51545;51.568;6.998;2024-01-15T07:05:51;1.43;98.03
64997;SHT31;51545;51.568;6.998;2024-01-15T07:08:17;1.40;98.15
64997;SHT31;51545;51.568;6.998;2024-01-15T07:10:43;1.39;98.18
64997;SHT31;51545;51.568;6.998;2024-01-15T07:13:09;1.39;98.21
64997;SHT31;51545;51.568;6.998;2024-01-15T07:15:35;1.45;98.08
64997;SHT31;51545;51.568;6.998;2024-01-15T07:18:01;1.45;97.99
64997;SHT31;51545;51.568;6.998;2024-01-15T07:20:27;1.42;98.00
64997;SHT31;51545;51.568;6.998;2024-01-15T07:22:53;1.39;98.00
64997;SHT31;51545;51.568;6.998;2024-01-15T07:25:19;1.45;98.02
64997;SHT31;51545;51.568;6.998;2024-01-15T07:27:45;1.43;97.98
64997;SHT31;51545;51.568;6.998;2024-01-15T07:30:12;1.42;98.12
64997;SHT31;51545;51.568;6.998;2024-01-15T07:32:39;1.40;98.06
64997;SHT31;51545;51.568;6.998;2024-01-15T07:35:06;1.40;98.18
64997;SHT31;51545;51.568;6.998;2024-01-15T07:37:32;1.46;98.02
64997;SHT31;51545;51.568;6.998;2024-01-15T07:39:59;1.47;97.96
64997;SHT31;51545;51.568;6.998;2024-01-15T07:42:39;1.45;98.11
64997;SHT31;51545;51.568;6.998;2024-01-15T07:45:05;1.49;98.25
64997;SHT31;51545;51.568;6.998;2024-01-15T07:47:31;1.47;98.15
64997;SHT31;51545;51.568;6.998;2024-01-15T07:49:57;1.45;98.18
64997;SHT31;51545;51.568;6.998;2024-01-15T07:52:23;1.45;98.32
64997;SHT31;51545;51.568;6.998;2024-01-15T07:54:49;1.35;98.51
64997;SHT31;51545;51.568;6.998;2024-01-15T07:57:15;1.25;98.86
64997;SHT31;51545;51.568;6.998;2024-01-15T07:59:41;1.19;99.13
64997;SHT31;51545;51.568;6.998;2024-01-15T08:02:07;1.15;99.22
64997;SHT31;51545;51.568;6.998;2024-01-15T08:04:33;1.12;99.36
64997;SHT31;51545;51.568;6.998;2024-01-15T08:06:59;1.09;99.38
64997;SHT31;51545;51.568;6.998;2024-01-15T08:09:25;1.04;99.61
64997;SHT31;51545;51.568;6.998;2024-01-15T08:14:22;0.95;99.79
64997;SHT31;51545;51.568;6.998;2024-01-15T08:16:48;0.88;99.98
64997;SHT31;51545;51.568;6.998;2024-01-15T08:19:14;0.84;99.99
64997;SHT31;51545;51.568;6.998;2024-01-15T08:21:40;0.83;99.99
64997;SHT31;51545;51.568;6.998;2024-01-15T08:24:06;0.80;99.99
64997;SHT31;51545;51.568;6.998;2024-01-15T08:26:32;0.76;99.99
64997;SHT31;51545;51.568;6.998;2024-01-15T08:28:58;0.79;99.99
64997;SHT31;51545;51.568;6.998;2024-01-15T08:31:24;0.76;99.99
64997;SHT31;51545;51.568;6.998;2024-01-15T08:33:50;0.74;99.99
64997;SHT31;51545;51.568;6.998;2024-01-15T08:36:17;0.76;99.99
64997;SHT31;51545;51.568;6.998;2024-01-15T08:38:44;0.74;99.99
64997;SHT31;51545;51.568;6.998;2024-01-15T08:41:10;0.76;99.99
64997;SHT31;51545;51.568;6.998;2024-01-15T08:43:36;0.74;99.99
64997;SHT31;51545;51.568;6.998;2024-01-15T08:46:02;0.73;99.99
64997;SHT31;51545;51.568;6.998;2024-01-15T08:48:29;0.76;99.99
64997;SHT31;51545;51.568;6.998;2024-01-15T08:50:55;0.74;99.99
64997;SHT31;51545;51.568;6.998;2024-01-15T08:53:21;0.77;99.99
64997;SHT31;51545;51.568;6.998;2024-01-15T08:55:47;0.74;99.99
64997;SHT31;51545;51.568;6.998;2024-01-15T08:58:14;0.77;99.99
64997;SHT31;51545;51.568;6.998;2024-01-15T09:00:41;0.74;99.99
64997;SHT31;51545;51.568;6.998;2024-01-15T09:03:07;0.73;99.99
64997;SHT31;51545;51.568;6.998;2024-01-15T09:05:34;0.76;99.99
64997;SHT31;51545;51.568;6.998;2024-01-15T09:08:00;0.72;99.99
64997;SHT31;51545;51.568;6.998;2024-01-15T09:10:26;0.74;99.99
64997;SHT31;51545;51.568;6.998;2024-01-15T09:12:52;0.74;99.99
64997;SHT31;51545;51.568;6.998;2024-01-15T09:15:18;0.66;99.99
64997;SHT31;51545;51.568;6.998;2024-01-15T09:17:45;0.57;99.99
64997;SHT31;51545;51.568;6.998;2024-01-15T09:20:11;0.62;99.99
64997;SHT31;51545;51.568;6.998;2024-01-15T09:22:39;0.56;99.99
64997;SHT31;51545;51.568;6.998;2024-01-15T09:25:08;0.57;99.99
64997;SHT31;51545;51.568;6.998;2024-01-15T09:27:35;0.53;99.99
64997;SHT31;51545;51.568;6.998;2024-01-15T09:30:02;0.57;99.99
64997;SHT31;51545;51.568;6.998;2024-01-15T09:32:29;0.52;99.99
64997;SHT31;51545;51.568;6.998;2024-01-15T09:34:55;0.59;99.99
64997;SHT31;51545;51.568;6.998;2024-01-15T09:37:21;0.55;99.99
64997;SHT31;51545;51.568;6.998;2024-01-15T09:39:48;0.56;99.99
64997;SHT31;51545;51.568;6.998;2024-01-15T09:42:15;0.55;99.99
64997;SHT31;51545;51.568;6.998;2024-01-15T09:44:41;0.62;99.99
64997;SHT31;51545;51.568;6.998;2024-01-15T09:47:08;0.55;99.99
64997;SHT31;51545;51.568;6.998;2024-01-15T09:49:35;0.55;99.99
64997;SHT31;51545;51.568;6.998;2024-01-15T09:52:01;0.59;99.99
64997;SHT31;51545;51.568;6.998;2024-01-15T09:54:28;0.60;99.99
64997;SHT31;51545;51.568;6.998;2024-01-15T09:56:54;0.59;99.99
64997;SHT31;51545;51.568;6.998;2024-01-15T09:59:21;0.63;99.99
64997;SHT31;51545;51.568;6.998;2024-01-15T10:01:50;0.74;99.99
64997;SHT31;51545;51.568;6.998;2024-01-15T10:04:16;0.80;99.99
64997;SHT31;51545;51.568;6.998;2024-01-15T10:06:43;0.74;99.99
64997;SHT31;51545;51.568;6.998;2024-01-15T10:09:14;0.74;99.99
64997;SHT31;51545;51.568;6.998;2024-01-15T10:11:44;0.72;99.99
64997;SHT31;51545;51.568;6.998;2024-01-15T10:14:11;0.73;99.99
64997;SHT31;51545;51.568;6.998;2024-01-15T10:16:40;0.76;99.99
64997;SHT31;51545;51.568;6.998;2024-01-15T10:19:06;0.79;99.99
64997;SHT31;51545;51.568;6.998;2024-01-15T10:21:33;0.79;99.99
64997;SHT31;51545;51.568;6.998;2024-01-15T10:24:02;0.81;99.99
64997;SHT31;51545;51.568;6.998;2024-01-15T10:26:29;0.84;99.99
64997;SHT31;51545;51.568;6.998;2024-01-15T10:28:56;0.84;99.99
64997;SHT31;51545;51.568;6.998;2024-01-15T10:31:24;0.81;99.99
64997;SHT31;51545;51.568;6.998;2024-01-15T10:33:51;0.84;99.99
64997;SHT31;51545;51.568;6.998;2024-01-15T10:36:17;0.87;99.99
64997;SHT31;51545;51.568;6.998;2024-01-15T10:38:44;0.94;99.99
64997;SHT31;51545;51.568;6.998;2024-01-15T10:41:11;1.00;99.99
64997;SHT31;51545;51.568;6.998;2024-01-15T10:43:37;0.95;99.99
64997;SHT31;51545;51.568;6.998;2024-01-15T10:46:03;0.95;99.99
64997;SHT31;51545;51.568;6.998;2024-01-15T10:48:31;0.97;99.99
64997;SHT31;51545;51.568;6.998;2024-01-15T10:51:01;1.01;99.99
64997;SHT31;51545;51.568;6.998;2024-01-15T10:53:37;0.98;99.99
64997;SHT31;51545;51.568;6.998;2024-01-15T10:56:07;0.97;99.99
64997;SHT31;51545;51.568;6.998;2024-01-15T10:58:35;1.01;99.99
64997;SHT31;51545;51.568;6.998;2024-01-15T11:01:04;1.09;99.99
64997;SHT31;51545;51.568;6.998;2024-01-15T11:03:31;1.05;99.99
64997;SHT31;51545;51.568;6.998;2024-01-15T11:05:58;1.21;99.91
64997;SHT31;51545;51.568;6.998;2024-01-15T11:08:25;1.34;99.73
64997;SHT31;51545;51.568;6.998;2024-01-15T11:10:51;1.40;99.63
64997;SHT31;51545;51.568;6.998;2024-01-15T11:13:21;1.32;99.61
64997;SHT31;51545;51.568;6.998;2024-01-15T11:16:08;1.36;99.27
64997;SHT31;51545;51.568;6.998;2024-01-15T11:18:42;1.40;99.01
64997;SHT31;51545;51.568;6.998;2024-01-15T11:21:24;1.35;98.82
64997;SHT31;51545;51.568;6.998;2024-01-15T11:24:01;1.35;99.00
64997;SHT31;51545;51.568;6.998;2024-01-15T11:26:32;1.43;99.02
64997;SHT31;51545;51.568;6.998;2024-01-15T11:29:03;1.42;98.64
64997;SHT31;51545;51.568;6.998;2024-01-15T11:34:51;1.66;98.69
64997;SHT31;51545;51.568;6.998;2024-01-15T11:37:23;1.75;98.17
64997;SHT31;51545;51.568;6.998;2024-01-15T11:39:53;1.64;98.18
64997;SHT31;51545;51.568;6.998;2024-01-15T11:42:21;1.63;98.37
64997;SHT31;51545;51.568;6.998;2024-01-15T11:44:48;1.67;97.91
64997;SHT31;51545;51.568;6.998;2024-01-15T11:47:15;1.67;98.31
64997;SHT31;51545;51.568;6.998;2024-01-15T11:49:58;1.64;98.34
64997;SHT31;51545;51.568;6.998;2024-01-15T11:52:31;1.67;98.35
64997;SHT31;51545;51.568;6.998;2024-01-15T11:58:01;1.70;98.17
64997;SHT31;51545;51.568;6.998;2024-01-15T12:00:28;1.56;98.43
64997;SHT31;51545;51.568;6.998;2024-01-15T12:02:54;1.50;98.21
64997;SHT31;51545;51.568;6.998;2024-01-15T12:05:23;1.55;98.39
64997;SHT31;51545;51.568;6.998;2024-01-15T12:07:49;1.59;98.46
64997;SHT31;51545;51.568;6.998;2024-01-15T12:10:16;1.52;98.30
64997;SHT31;51545;51.568;6.998;2024-01-15T12:15:33;1.67;98.23
64997;SHT31;51545;51.568;6.998;2024-01-15T12:18:00;1.68;97.96
64997;SHT31;51545;51.568;6.998;2024-01-15T12:20:29;1.70;98.11
64997;SHT31;51545;51.568;6.998;2024-01-15T12:22:55;1.73;97.96
64997;SHT31;51545;51.568;6.998;2024-01-15T12:25:25;1.66;98.18
64997;SHT31;51545;51.568;6.998;2024-01-15T12:27:56;1.67;97.82
64997;SHT31;51545;51.568;6.998;2024-01-15T12:30:22;1.63;98.09
64997;SHT31;51545;51.568;6.998;2024-01-15T12:32:48;1.59;98.17
64997;SHT31;51545;51.568;6.998;2024-01-15T12:35:15;1.56;98.14
64997;SHT31;51545;51.568;6.998;2024-01-15T12:37:42;1.55;97.92
64997;SHT31;51545;51.568;6.998;2024-01-15T12:40:09;1.64;98.21
64997;SHT31;51545;51.568;6.998;2024-01-15T12:42:36;1.88;98.26
64997;SHT31;51545;51.568;6.998;2024-01-15T12:45:04;2.01;98.18
64997;SHT31;51545;51.568;6.998;2024-01-15T12:47:31;1.94;97.91
64997;SHT31;51545;51.568;6.998;2024-01-15T12:49:58;2.02;97.96
64997;SHT31;51545;51.568;6.998;2024-01-15T12:52:28;2.05;97.83
64997;SHT31;51545;51.568;6.998;2024-01-15T12:54:55;2.03;97.52
64997;SHT31;51545;51.568;6.998;2024-01-15T12:57:21;2.08;97.31
64997;SHT31;51545;51.568;6.998;2024-01-15T12:59:48;2.05;97.63
64997;SHT31;51545;51.568;6.998;2024-01-15T13:02:15;2.06;97.73
64997;SHT31;51545;51.568;6.998;2024-01-15T13:04:42;2.06;97.66
64997;SHT31;51545;51.568;6.998;2024-01-15T13:07:09;2.09;97.41
64997;SHT31;51545;51.568;6.998;2024-01-15T13:09:35;2.19;97.57
64997;SHT31;51545;51.568;6.998;2024-01-15T13:12:01;2.16;97.25
64997;SHT31;51545;51.568;6.998;2024-01-15T13:14:28;2.22;97.33
64997;SHT31;51545;51.568;6.998;2024-01-15T13:16:54;2.39;96.89
64997;SHT31;51545;51.568;6.998;2024-01-15T13:19:21;2.60;96.88
64997;SHT31;51545;51.568;6.998;2024-01-15T13:21:47;2.64;96.53
64997;SHT31;51545;51.568;6.998;2024-01-15T13:24:15;2.60;96.10
64997;SHT31;51545;51.568;6.998;2024-01-15T13:26:41;2.61;95.89
64997;SHT31;51545;51.568;6.998;2024-01-15T13:29:07;2.67;95.46
64997;SHT31;51545;51.568;6.998;2024-01-15T13:31:33;2.67;95.36
64997;SHT31;51545;51.568;6.998;2024-01-15T13:33:59;2.78;95.46
64997;SHT31;51545;51.568;6.998;2024-01-15T13:36:25;2.91;95.49
64997;SHT31;51545;51.568;6.998;2024-01-15T13:38:52;2.83;95.23
64997;SHT31;51545;51.568;6.998;2024-01-15T13:41:22;2.71;95.80
64997;SHT31;51545;51.568;6.998;2024-01-15T13:43:55;2.61;95.20
64997;SHT31;51545;51.568;6.998;2024-01-15T13:46:23;2.67;95.12
64997;SHT31;51545;51.568;6.998;2024-01-15T13:48:49;2.52;95.15
64997;SHT31;51545;51.568;6.998;2024-01-15T13:51:15;2.33;95.64
64997;SHT31;51545;51.568;6.998;2024-01-15T13:53:41;2.20;96.30
64997;SHT31;51545;51.568;6.998;2024-01-15T13:56:07;2.20;96.87
64997;SHT31;51545;51.568;6.998;2024-01-15T13:58:36;2.20;96.82
64997;SHT31;51545;51.568;6.998;2024-01-15T14:01:02;2.19;96.87
64997;SHT31;51545;51.568;6.998;2024-01-15T14:03:31;2.28;96.24
64997;SHT31;51545;51.568;6.998;2024-01-15T14:05:59;2.16;96.51
64997;SHT31;51545;51.568;6.998;2024-01-15T14:08:25;2.11;96.61
64997;SHT31;51545;51.568;6.998;2024-01-15T14:10:51;2.09;96.75
64997;SHT31;51545;51.568;6.998;2024-01-15T14:13:17;2.09;96.81
64997;SHT31;51545;51.568;6.998;2024-01-15T14:15:43;2.06;96.97
64997;SHT31;51545;51.568;6.998;2024-01-15T14:18:09;2.01;97.20
64997;SHT31;51545;51.568;6.998;2024-01-15T14:20:35;1.94;97.69
64997;SHT31;51545;51.568;6.998;2024-01-15T14:23:01;1.97;98.01
64997;SHT31;51545;51.568;6.998;2024-01-15T14:25:28;1.92;98.06
64997;SHT31;51545;51.568;6.998;2024-01-15T14:27:54;1.90;97.97
64997;SHT31;51545;51.568;6.998;2024-01-15T14:30:20;1.84;97.95
64997;SHT31;51545;51.568;6.998;2024-01-15T14:32:46;1.80;97.82
64997;SHT31;51545;51.568;6.998;2024-01-15T14:35:12;1.74;98.02
64997;SHT31;51545;51.568;6.998;2024-01-15T14:37:39;1.71;97.57
64997;SHT31;51545;51.568;6.998;2024-01-15T14:40:05;1.70;97.72
64997;SHT31;51545;51.568;6.998;2024-01-15T14:42:34;1.68;97.77
64997;SHT31;51545;51.568;6.998;2024-01-15T14:45:00;1.64;97.81
64997;SHT31;51545;51.568;6.998;2024-01-15T14:47:30;1.68;97.59
64997;SHT31;51545;51.568;6.998;2024-01-15T14:49:56;1.67;97.68
64997;SHT31;51545;51.568;6.998;2024-01-15T14:52:23;1.68;97.18
64997;SHT31;51545;51.568;6.998;2024-01-15T14:54:49;1.63;97.37
64997;SHT31;51545;51.568;6.998;2024-01-15T14:57:15;1.60;97.23
64997;SHT31;51545;51.568;6.998;2024-01-15T14:59:41;1.52;97.43
64997;SHT31;51545;51.568;6.998;2024-01-15T15:02:07;1.47;97.41
64997;SHT31;51545;51.568;6.998;2024-01-15T15:04:33;1.45;97.40
64997;SHT31;51545;51.568;6.998;2024-01-15T15:06:59;1.43;97.34
64997;SHT31;51545;51.568;6.998;2024-01-15T15:09:25;1.40;97.25
64997;SHT31;51545;51.568;6.998;2024-01-15T15:11:51;1.38;97.12
64997;SHT31;51545;51.568;6.998;2024-01-15T15:14:18;1.36;96.95
64997;SHT31;51545;51.568;6.998;2024-01-15T15:16:44;1.28;97.07
64997;SHT31;51545;51.568;6.998;2024-01-15T15:19:12;1.28;97.09
64997;SHT31;51545;51.568;6.998;2024-01-15T15:21:38;1.25;97.05
64997;SHT31;51545;51.568;6.998;2024-01-15T15:24:04;1.25;97.01
64997;SHT31;51545;51.568;6.998;2024-01-15T15:26:30;1.36;96.00
64997;SHT31;51545;51.568;6.998;2024-01-15T15:28:57;1.46;95.64
64997;SHT31;51545;51.568;6.998;2024-01-15T15:31:23;1.47;95.52
64997;SHT31;51545;51.568;6.998;2024-01-15T15:33:49;1.45;95.50
64997;SHT31;51545;51.568;6.998;2024-01-15T15:36:14;1.43;95.27
64997;SHT31;51545;51.568;6.998;2024-01-15T15:38:40;1.38;95.45
64997;SHT31;51545;51.568;6.998;2024-01-15T15:41:06;1.34;95.71
64997;SHT31;51545;51.568;6.998;2024-01-15T15:43:33;1.38;95.66
64997;SHT31;51545;51.568;6.998;2024-01-15T15:45:59;1.34;95.70
64997;SHT31;51545;51.568;6.998;2024-01-15T15:48:26;1.31;95.84
64997;SHT31;51545;51.568;6.998;2024-01-15T15:50:53;1.38;95.79
64997;SHT31;51545;51.568;6.998;2024-01-15T15:53:20;1.29;95.99
64997;SHT31;51545;51.568;6.998;2024-01-15T15:55:47;1.19;96.35